Time;durP1;ratioP1;P1;durP2;ratioP2;P2;SDS_P1;SDS_P2;PMS_P1;PMS_P2;Temp;Humidity;BMP_temperature;BMP_pressure;BME280_temperature;BME280_humidity;BME280_pressure;Samples;Min_cycle;Max_cycle;Signal;HPM_P1;HPM_P2
2022/05/07 00:01:19;;;;;;;21.48;17.50;;;13.90;99.90;;;;;;5035142;28;20044;-62
2022/05/07 00:03:45;;;;;;;22.10;17.23;;;13.90;99.90;;;;;;5041137;28;20124;-62
2022/05/07 00:06:11;;;;;;;20.90;17.55;;;13.90;99.90;;;;;;5038388;28;20034;-62
2022/05/07 00:08:37;;;;;;;19.08;17.00;;;13.90;99.90;;;;;;5036307;28;20037;-62
2022/05/07 00:11:03;;;;;;;18.63;16.63;;;13.90;99.90;;;;;;5033226;28;20041;-63
2022/05/07 00:13:28;;;;;;;18.70;16.25;;;13.90;99.90;;;;;;5038896;28;20044;-62
2022/05/07 00:18:38;;;;;;;18.55;15.48;;;13.90;99.90;;;;;;5041791;28;20589;-62
2022/05/07 00:21:03;;;;;;;19.50;15.50;;;13.90;99.90;;;;;;5032776;28;20052;-62
2022/05/07 00:23:30;;;;;;;18.02;15.75;;;13.90;99.90;;;;;;5035768;28;20138;-62
2022/05/07 00:25:56;;;;;;;20.05;15.77;;;14.00;99.90;;;;;;5040144;28;20089;-62
2022/05/07 00:28:22;;;;;;;16.98;15.02;;;14.00;99.90;;;;;;5041120;28;20068;-62
2022/05/07 00:30:47;;;;;;;16.77;15.02;;;14.00;99.90;;;;;;5035344;28;20049;-63
2022/05/07 00:33:13;;;;;;;20.42;16.30;;;14.00;99.90;;;;;;5037341;28;20045;-62
2022/05/07 00:35:38;;;;;;;18.27;15.07;;;14.00;99.90;;;;;;5042200;28;20045;-61
2022/05/07 00:38:04;;;;;;;19.92;16.23;;;14.00;99.90;;;;;;5041166;28;20053;-62
2022/05/07 00:40:30;;;;;;;18.02;15.73;;;14.00;99.90;;;;;;5037689;28;20455;-61
2022/05/07 00:42:56;;;;;;;19.92;16.08;;;13.90;99.90;;;;;;5044339;28;20064;-62
2022/05/07 00:45:21;;;;;;;17.65;15.45;;;13.90;99.90;;;;;;5042700;28;20041;-62
2022/05/07 00:47:47;;;;;;;20.88;15.48;;;13.90;99.90;;;;;;5034966;28;20079;-62
2022/05/07 00:52:57;;;;;;;18.02;15.15;;;13.90;99.90;;;;;;5043338;28;20989;-61
2022/05/07 00:55:25;;;;;;;18.15;15.02;;;13.80;99.90;;;;;;5041110;28;20048;-61
2022/05/07 00:57:51;;;;;;;17.38;15.43;;;13.90;99.90;;;;;;5043159;28;20062;-61
2022/05/07 01:00:17;;;;;;;19.10;15.43;;;13.90;99.90;;;;;;5040127;28;20106;-62
2022/05/07 01:02:42;;;;;;;19.13;15.20;;;13.90;99.90;;;;;;5044873;28;20806;-62
2022/05/07 01:05:10;;;;;;;18.70;15.73;;;13.90;99.90;;;;;;5041450;28;20045;-61
2022/05/07 01:07:36;;;;;;;19.55;16.25;;;13.90;99.90;;;;;;5038080;28;20069;-61
2022/05/07 01:10:03;;;;;;;18.02;15.63;;;13.90;99.90;;;;;;5040206;28;20067;-63
2022/05/07 01:12:30;;;;;;;19.75;15.00;;;13.90;99.90;;;;;;5042324;28;20033;-62
2022/05/07 01:14:57;;;;;;;18.38;15.02;;;13.90;99.90;;;;;;5043507;28;20040;-62
2022/05/07 01:17:23;;;;;;;19.42;15.68;;;13.90;99.90;;;;;;5038279;28;20551;-61
2022/05/07 01:19:52;;;;;;;20.92;15.32;;;13.90;99.90;;;;;;5037185;28;20080;-62
2022/05/07 01:22:19;;;;;;;18.38;15.35;;;13.90;99.90;;;;;;5038976;28;20037;-62
2022/05/07 01:24:44;;;;;;;19.42;15.65;;;13.90;99.90;;;;;;5034558;28;20125;-62
2022/05/07 01:27:10;;;;;;;17.50;15.38;;;13.90;99.90;;;;;;5039404;28;20128;-61
2022/05/07 01:29:36;;;;;;;19.17;15.10;;;13.90;99.90;;;;;;5035971;28;20129;-61
2022/05/07 01:32:01;;;;;;;19.17;15.70;;;14.00;99.90;;;;;;5042789;28;20083;-63
2022/05/07 01:34:27;;;;;;;20.63;16.52;;;14.00;99.90;;;;;;5042722;28;20171;-62
2022/05/07 01:36:52;;;;;;;18.25;16.15;;;14.00;99.90;;;;;;5040052;28;20128;-62
2022/05/07 01:39:18;;;;;;;21.05;16.38;;;14.00;99.90;;;;;;5040396;28;20133;-61
2022/05/07 01:41:43;;;;;;;19.83;16.23;;;13.90;99.90;;;;;;5033134;28;20037;-61
2022/05/07 01:44:09;;;;;;;18.40;16.30;;;13.90;99.90;;;;;;5040543;28;20041;-61
2022/05/07 01:49:18;;;;;;;18.13;15.30;;;13.90;99.90;;;;;;5044013;28;20159;-62
2022/05/07 01:51:44;;;;;;;19.10;16.17;;;13.90;99.90;;;;;;5043071;28;20535;-61
2022/05/07 01:54:09;;;;;;;19.23;15.75;;;13.90;99.90;;;;;;5037787;28;20187;-61
2022/05/07 01:56:35;;;;;;;20.35;16.40;;;13.90;99.90;;;;;;5039995;28;20548;-61
2022/05/07 01:59:00;;;;;;;21.45;17.30;;;13.90;99.90;;;;;;5046124;28;20068;-61
2022/05/07 02:01:26;;;;;;;21.13;17.33;;;13.90;99.90;;;;;;5041620;28;20041;-62
2022/05/07 02:03:52;;;;;;;19.85;17.08;;;13.90;99.90;;;;;;5042658;28;20360;-61
2022/05/07 02:06:17;;;;;;;20.25;16.23;;;13.80;99.90;;;;;;5035688;28;20056;-61
2022/05/07 02:08:43;;;;;;;18.25;16.35;;;13.80;99.90;;;;;;5038621;28;20044;-61
2022/05/07 02:11:08;;;;;;;21.15;16.77;;;13.80;99.90;;;;;;5042203;28;20102;-62
2022/05/07 02:13:34;;;;;;;21.13;17.17;;;13.80;99.90;;;;;;5037824;28;20045;-61
2022/05/07 02:16:00;;;;;;;20.55;16.63;;;13.80;99.90;;;;;;5044706;28;20045;-61
2022/05/07 02:18:25;;;;;;;20.73;17.10;;;13.80;99.90;;;;;;5039237;28;20076;-62
2022/05/07 02:20:53;;;;;;;19.33;16.48;;;13.80;99.90;;;;;;5040875;28;20087;-61
2022/05/07 02:23:19;;;;;;;18.98;16.38;;;13.80;99.90;;;;;;5046941;28;20095;-61
2022/05/07 02:25:44;;;;;;;18.38;16.00;;;13.80;99.90;;;;;;5042787;28;20051;-61
2022/05/07 02:28:10;;;;;;;19.02;16.95;;;13.80;99.90;;;;;;5044762;28;20048;-61
2022/05/07 02:30:35;;;;;;;19.00;16.45;;;13.80;99.90;;;;;;5034795;28;20128;-62
2022/05/07 02:33:01;;;;;;;19.65;16.73;;;13.70;99.90;;;;;;5042964;28;20038;-62
2022/05/07 02:35:27;;;;;;;19.40;17.05;;;13.70;99.90;;;;;;5048158;28;20060;-61
2022/05/07 02:37:53;;;;;;;20.60;17.08;;;13.70;99.90;;;;;;5040595;28;20149;-61
2022/05/07 02:40:19;;;;;;;20.40;17.55;;;13.60;99.90;;;;;;5043357;28;20136;-61
2022/05/07 02:42:45;;;;;;;20.30;17.23;;;13.60;99.90;;;;;;5037289;28;20178;-61
2022/05/07 02:45:13;;;;;;;22.15;16.90;;;13.60;99.90;;;;;;5034925;28;20491;-61
2022/05/07 02:47:41;;;;;;;20.40;17.60;;;13.60;99.90;;;;;;5042215;28;21674;-61
2022/05/07 02:50:09;;;;;;;20.52;17.25;;;13.60;99.90;;;;;;5039389;28;20095;-61
2022/05/07 02:52:35;;;;;;;19.23;15.98;;;13.60;99.90;;;;;;5036237;28;20151;-61
2022/05/07 02:55:02;;;;;;;20.75;17.80;;;13.60;99.90;;;;;;5036237;28;20049;-62
2022/05/07 02:57:28;;;;;;;20.08;17.98;;;13.60;99.90;;;;;;5036537;28;20048;-60
2022/05/07 02:59:54;;;;;;;23.55;18.40;;;13.60;99.90;;;;;;5032777;28;20589;-63
2022/05/07 03:02:20;;;;;;;21.23;17.35;;;13.60;99.90;;;;;;5043769;28;20420;-61
2022/05/07 03:04:47;;;;;;;20.70;16.58;;;13.50;99.90;;;;;;5044683;28;20405;-61
2022/05/07 03:07:13;;;;;;;23.50;18.48;;;13.50;99.90;;;;;;5038296;28;20432;-61
2022/05/07 03:09:39;;;;;;;19.40;16.70;;;13.50;99.90;;;;;;5035696;28;20098;-61
2022/05/07 03:12:05;;;;;;;20.10;17.02;;;13.50;99.90;;;;;;5034084;28;20041;-61
2022/05/07 03:14:32;;;;;;;21.73;17.85;;;13.50;99.90;;;;;;5038627;28;20051;-61
2022/05/07 03:16:57;;;;;;;23.02;18.35;;;13.50;99.90;;;;;;5042770;28;20110;-61
2022/05/07 03:19:23;;;;;;;20.35;17.67;;;13.50;99.90;;;;;;5034712;28;20045;-60
2022/05/07 03:21:49;;;;;;;20.77;16.92;;;13.50;99.90;;;;;;5040423;28;20050;-61
2022/05/07 03:24:14;;;;;;;21.73;17.45;;;13.50;99.90;;;;;;5041870;28;20131;-62
2022/05/07 03:26:40;;;;;;;22.38;18.40;;;13.50;99.90;;;;;;5041159;28;20037;-62
2022/05/07 03:29:05;;;;;;;22.00;18.42;;;13.50;99.90;;;;;;5043388;28;20136;-60
2022/05/07 03:31:31;;;;;;;20.55;17.73;;;13.50;99.90;;;;;;5040317;28;20068;-60
2022/05/07 03:33:57;;;;;;;22.90;18.67;;;13.50;99.90;;;;;;5039703;28;20056;-61
2022/05/07 03:36:22;;;;;;;22.35;18.15;;;13.50;99.90;;;;;;5037885;28;20088;-62
2022/05/07 03:38:48;;;;;;;21.27;17.92;;;13.50;99.90;;;;;;5032787;28;20136;-61
2022/05/07 03:41:15;;;;;;;23.75;18.63;;;13.50;99.90;;;;;;5041041;28;20132;-61
2022/05/07 03:43:41;;;;;;;22.70;18.73;;;13.50;99.90;;;;;;5037192;28;20511;-61
2022/05/07 03:46:07;;;;;;;20.70;17.77;;;13.50;99.90;;;;;;5034422;28;20033;-61
2022/05/07 03:48:33;;;;;;;23.50;19.27;;;13.50;99.90;;;;;;5035403;28;20029;-61
2022/05/07 03:50:59;;;;;;;22.95;18.92;;;13.50;99.90;;;;;;5039147;28;20502;-61
2022/05/07 03:53:30;;;;;;;22.13;18.35;;;13.50;99.90;;;;;;5040835;28;20463;-61
2022/05/07 03:56:01;;;;;;;21.23;18.30;;;13.40;99.90;;;;;;5040098;28;20033;-61
2022/05/07 03:58:27;;;;;;;21.90;18.10;;;13.40;99.90;;;;;;5041970;28;20106;-61
2022/05/07 04:00:57;;;;;;;24.08;18.98;;;13.40;99.90;;;;;;5020886;28;20093;-61
2022/05/07 04:03:22;;;;;;;22.60;19.58;;;13.40;99.90;;;;;;5041356;28;20486;-61
2022/05/07 04:05:49;;;;;;;24.15;20.00;;;13.40;99.90;;;;;;5037320;28;20043;-60
2022/05/07 04:08:15;;;;;;;24.83;19.38;;;13.40;99.90;;;;;;5036626;28;20086;-61
2022/05/07 04:10:42;;;;;;;22.45;18.90;;;13.40;99.90;;;;;;5041352;28;21015;-61
2022/05/07 04:13:08;;;;;;;22.88;19.65;;;13.40;99.90;;;;;;5043030;28;20045;-62
2022/05/07 04:15:36;;;;;;;25.02;20.33;;;13.40;99.90;;;;;;5042491;28;20506;-61
2022/05/07 04:18:02;;;;;;;25.20;19.48;;;13.40;99.90;;;;;;5046070;28;20071;-63
2022/05/07 04:20:27;;;;;;;24.40;20.63;;;13.40;99.90;;;;;;5036706;28;20479;-62
2022/05/07 04:22:53;;;;;;;27.02;20.50;;;13.40;99.90;;;;;;5039990;28;21408;-61
2022/05/07 04:25:18;;;;;;;24.05;19.77;;;13.40;99.90;;;;;;5042297;28;20111;-61
2022/05/07 04:27:44;;;;;;;22.88;20.33;;;13.40;99.90;;;;;;5044851;28;20620;-62
2022/05/07 04:30:10;;;;;;;25.50;20.95;;;13.50;99.90;;;;;;5046314;28;20036;-61
2022/05/07 04:32:35;;;;;;;23.35;20.83;;;13.50;99.90;;;;;;5048650;28;20051;-61
2022/05/07 04:35:01;;;;;;;24.95;20.73;;;13.50;99.90;;;;;;5043148;28;20033;-61
2022/05/07 04:37:27;;;;;;;23.75;20.83;;;13.50;99.90;;;;;;5041242;28;20336;-61
2022/05/07 04:39:52;;;;;;;24.48;19.75;;;13.50;99.90;;;;;;5044176;28;20490;-61
2022/05/07 04:42:18;;;;;;;25.40;20.73;;;13.50;99.90;;;;;;5044699;28;20120;-61
2022/05/07 04:44:44;;;;;;;26.40;21.38;;;13.60;99.90;;;;;;5041196;28;20124;-61
2022/05/07 04:47:09;;;;;;;24.13;20.73;;;13.50;99.90;;;;;;5038169;28;20045;-61
2022/05/07 04:49:36;;;;;;;23.33;20.73;;;13.60;99.90;;;;;;5043234;28;20116;-62
2022/05/07 04:52:02;;;;;;;25.70;21.35;;;13.60;99.90;;;;;;5042367;28;20083;-63
2022/05/07 04:54:28;;;;;;;26.08;21.50;;;13.60;99.90;;;;;;5042262;28;20072;-63
2022/05/07 04:56:54;;;;;;;27.00;22.23;;;13.60;99.90;;;;;;5037318;28;20061;-62
2022/05/07 04:59:20;;;;;;;25.10;22.40;;;13.60;99.90;;;;;;5044359;28;20516;-61
2022/05/07 05:01:46;;;;;;;25.10;21.58;;;13.70;99.90;;;;;;5033998;28;20052;-62
2022/05/07 05:04:12;;;;;;;25.75;22.55;;;13.70;99.90;;;;;;5038476;28;20033;-62
2022/05/07 05:06:38;;;;;;;26.85;22.33;;;13.70;99.90;;;;;;5038892;28;20069;-63
2022/05/07 05:09:05;;;;;;;25.80;22.15;;;13.70;99.90;;;;;;5035872;28;20382;-63
2022/05/07 05:11:31;;;;;;;30.90;23.65;;;13.80;99.90;;;;;;5040117;28;20411;-62
2022/05/07 05:13:57;;;;;;;27.55;23.15;;;13.80;99.90;;;;;;5042855;28;20032;-62
2022/05/07 05:16:23;;;;;;;29.08;23.63;;;13.80;99.90;;;;;;5034387;28;20046;-62
2022/05/07 05:18:49;;;;;;;27.35;22.90;;;13.90;99.90;;;;;;5037362;28;20101;-62
2022/05/07 05:21:15;;;;;;;27.02;22.63;;;13.80;99.90;;;;;;5037450;28;20056;-62
2022/05/07 05:23:40;;;;;;;26.63;23.85;;;13.90;99.90;;;;;;5040362;28;20379;-62
2022/05/07 05:26:06;;;;;;;27.38;23.80;;;14.00;99.90;;;;;;5039459;28;20482;-62
2022/05/07 05:28:32;;;;;;;27.83;23.77;;;14.00;99.90;;;;;;5037496;28;20037;-62
2022/05/07 05:30:58;;;;;;;27.60;24.20;;;14.10;99.90;;;;;;5034022;28;20061;-63
2022/05/07 05:33:24;;;;;;;25.50;22.73;;;14.10;99.90;;;;;;5038311;28;20044;-62
2022/05/07 05:35:50;;;;;;;29.42;23.95;;;14.20;99.90;;;;;;5039506;28;20113;-62
2022/05/07 05:38:15;;;;;;;27.25;24.15;;;14.30;99.90;;;;;;5036314;28;20037;-63
2022/05/07 05:40:41;;;;;;;28.95;25.08;;;14.40;99.90;;;;;;5035142;28;20047;-62
2022/05/07 05:43:08;;;;;;;28.50;22.58;;;14.50;99.90;;;;;;5037614;28;20108;-62
2022/05/07 05:45:34;;;;;;;27.48;23.40;;;14.50;99.90;;;;;;5034273;28;20037;-61
2022/05/07 05:48:01;;;;;;;30.30;24.15;;;14.60;99.90;;;;;;5036772;28;20050;-62
2022/05/07 05:50:29;;;;;;;28.27;24.15;;;14.70;99.90;;;;;;5040166;28;20124;-61
2022/05/07 05:52:55;;;;;;;31.90;25.38;;;14.80;99.90;;;;;;5042004;28;20088;-61
2022/05/07 05:55:21;;;;;;;26.73;23.77;;;14.80;99.90;;;;;;5042880;28;20120;-62
2022/05/07 05:57:47;;;;;;;31.63;24.52;;;14.90;99.90;;;;;;5038729;28;20107;-62
2022/05/07 06:00:13;;;;;;;27.40;22.20;;;14.90;99.90;;;;;;5038872;28;20053;-61
2022/05/07 06:02:39;;;;;;;25.02;22.13;;;14.90;99.90;;;;;;5040466;28;20159;-61
2022/05/07 06:05:05;;;;;;;24.65;20.95;;;15.00;99.90;;;;;;5040834;28;20487;-61
2022/05/07 06:07:30;;;;;;;27.33;21.50;;;14.90;99.90;;;;;;5035790;28;20052;-61
2022/05/07 06:09:56;;;;;;;25.67;20.35;;;14.90;99.90;;;;;;5040804;28;20059;-61
2022/05/07 06:12:21;;;;;;;23.35;19.83;;;15.00;99.90;;;;;;5037162;28;20041;-62
2022/05/07 06:14:47;;;;;;;25.67;18.45;;;15.10;99.90;;;;;;5040490;28;20068;-61
2022/05/07 06:17:13;;;;;;;23.83;18.13;;;15.10;99.90;;;;;;5035839;28;20463;-62
2022/05/07 06:19:38;;;;;;;23.13;18.75;;;15.10;99.90;;;;;;5043781;28;20148;-61
2022/05/07 06:22:04;;;;;;;21.08;17.05;;;15.20;99.90;;;;;;5033960;28;20076;-61
2022/05/07 06:27:31;;;;;;;22.17;17.00;;;15.30;99.90;;;;;;5039954;28;20057;-63
2022/05/07 06:29:56;;;;;;;20.15;16.73;;;15.40;99.90;;;;;;5039383;28;20399;-60
2022/05/07 06:32:23;;;;;;;18.15;15.10;;;15.40;99.90;;;;;;5033639;28;20042;-60
2022/05/07 06:34:48;;;;;;;18.83;14.65;;;15.40;99.90;;;;;;5046079;28;20044;-60
2022/05/07 06:37:14;;;;;;;20.27;15.15;;;15.50;99.90;;;;;;5034173;28;20041;-60
2022/05/07 06:39:40;;;;;;;17.63;14.68;;;15.40;99.90;;;;;;5039585;28;20049;-62
2022/05/07 06:42:07;;;;;;;19.60;14.88;;;15.50;99.90;;;;;;5039292;28;20046;-62
2022/05/07 06:44:32;;;;;;;18.33;14.75;;;15.50;99.90;;;;;;5039643;28;20051;-62
2022/05/07 06:46:58;;;;;;;19.55;14.50;;;15.50;99.90;;;;;;5039147;28;20037;-62
2022/05/07 06:49:23;;;;;;;17.00;13.43;;;15.60;99.90;;;;;;5035584;28;20766;-62
2022/05/07 06:51:49;;;;;;;18.67;13.57;;;15.70;99.90;;;;;;5044212;28;20049;-62
2022/05/07 06:54:15;;;;;;;16.27;13.38;;;15.70;99.90;;;;;;5043094;28;20049;-61
2022/05/07 06:56:40;;;;;;;17.40;13.80;;;15.80;99.90;;;;;;5040050;28;20060;-63
2022/05/07 06:59:08;;;;;;;18.95;13.55;;;15.90;99.90;;;;;;5038888;28;20140;-61
2022/05/07 07:01:34;;;;;;;16.83;13.15;;;15.90;99.90;;;;;;5045689;28;20048;-61
2022/05/07 07:03:59;;;;;;;16.75;13.38;;;16.00;99.90;;;;;;5042845;28;20167;-64
2022/05/07 07:06:25;;;;;;;18.98;13.18;;;16.10;99.90;;;;;;5038571;28;20128;-61
2022/05/07 07:08:52;;;;;;;17.17;13.43;;;16.20;99.90;;;;;;5033929;28;20033;-63
2022/05/07 07:11:18;;;;;;;16.33;13.23;;;16.30;99.90;;;;;;5045927;28;20056;-63
2022/05/07 07:13:44;;;;;;;19.10;12.80;;;16.30;99.90;;;;;;5047032;28;20067;-61
2022/05/07 07:16:09;;;;;;;18.40;13.38;;;16.40;99.90;;;;;;5040604;28;20073;-62
2022/05/07 07:18:35;;;;;;;18.02;13.52;;;16.50;99.90;;;;;;5040427;28;20487;-60
2022/05/07 07:21:00;;;;;;;17.25;13.95;;;16.60;99.90;;;;;;5034568;28;20053;-62
2022/05/07 07:23:26;;;;;;;20.48;14.70;;;16.60;99.90;;;;;;5033886;28;20463;-61
2022/05/07 07:25:51;;;;;;;18.08;13.68;;;16.70;99.90;;;;;;5047093;28;20053;-60
2022/05/07 07:28:17;;;;;;;21.23;14.73;;;16.80;99.90;;;;;;5043882;28;20080;-62
2022/05/07 07:30:43;;;;;;;19.15;14.73;;;16.70;99.90;;;;;;5038101;28;20049;-61
2022/05/07 07:33:15;;;;;;;18.10;14.50;;;16.70;99.90;;;;;;5043599;28;20041;-61
2022/05/07 07:35:42;;;;;;;18.45;14.18;;;16.80;99.90;;;;;;5036887;28;20046;-60
2022/05/07 07:38:07;;;;;;;19.33;14.35;;;16.80;99.90;;;;;;5039873;28;20105;-60
2022/05/07 07:40:34;;;;;;;19.75;14.80;;;16.90;99.90;;;;;;5041194;28;20040;-63
2022/05/07 07:42:59;;;;;;;19.50;14.50;;;17.10;99.90;;;;;;5034510;28;20052;-61
2022/05/07 07:48:10;;;;;;;18.37;14.33;;;17.50;99.90;;;;;;5032842;28;20492;-61
2022/05/07 07:50:38;;;;;;;17.88;13.68;;;17.60;99.90;;;;;;5034939;28;20323;-62
2022/05/07 07:53:08;;;;;;;21.13;14.20;;;17.60;99.90;;;;;;5041643;28;20049;-61
2022/05/07 07:55:36;;;;;;;19.10;13.20;;;17.70;99.90;;;;;;5037881;28;20050;-61
2022/05/07 07:58:07;;;;;;;21.70;13.60;;;17.80;99.90;;;;;;5041263;28;20041;-63
2022/05/07 08:00:35;;;;;;;20.65;13.02;;;17.80;99.90;;;;;;5038954;28;20508;-61
2022/05/07 08:03:03;;;;;;;20.30;14.13;;;17.60;99.90;;;;;;5044063;28;20052;-61
2022/05/07 08:05:32;;;;;;;19.13;13.40;;;17.60;99.90;;;;;;5037405;28;20487;-61
2022/05/07 08:13:30;;;;;;;18.60;13.85;;;17.60;99.90;;;;;;5049129;28;20007;-61
2022/05/07 08:15:56;;;;;;;20.13;13.63;;;17.40;99.90;;;;;;5038866;28;20092;-61
2022/05/07 08:18:21;;;;;;;20.08;14.30;;;17.40;99.90;;;;;;5043853;28;20420;-62
2022/05/07 08:20:47;;;;;;;19.23;14.32;;;17.30;99.90;;;;;;5049072;28;20079;-62
2022/05/07 08:23:12;;;;;;;21.40;14.45;;;17.50;99.90;;;;;;5044862;28;20072;-62
2022/05/07 08:25:38;;;;;;;24.15;14.93;;;17.40;99.90;;;;;;5043744;28;20048;-61
2022/05/07 08:28:04;;;;;;;23.70;14.25;;;17.40;99.90;;;;;;5029472;28;20060;-61
2022/05/07 08:30:30;;;;;;;22.33;14.65;;;17.50;99.90;;;;;;5034635;28;20343;-62
2022/05/07 08:32:57;;;;;;;21.50;14.57;;;17.50;99.90;;;;;;5039778;28;20395;-62
2022/05/07 08:35:22;;;;;;;22.45;15.48;;;17.50;99.90;;;;;;5042567;28;20049;-62
2022/05/07 08:37:48;;;;;;;20.45;15.10;;;17.50;99.90;;;;;;5036405;28;20388;-62
2022/05/07 08:40:16;;;;;;;26.48;16.08;;;17.60;99.90;;;;;;5045462;28;20044;-61
2022/05/07 08:42:42;;;;;;;21.25;14.93;;;17.60;99.90;;;;;;5035035;28;20049;-63
2022/05/07 08:45:09;;;;;;;24.65;15.68;;;17.70;99.90;;;;;;5033007;28;20090;-61
2022/05/07 08:47:34;;;;;;;25.10;16.27;;;17.80;99.90;;;;;;5041798;28;20131;-62
2022/05/07 08:50:00;;;;;;;24.67;15.55;;;17.90;99.90;;;;;;5034714;28;20410;-61
2022/05/07 08:52:28;;;;;;;21.02;15.88;;;18.10;99.90;;;;;;5036398;28;20160;-61
2022/05/07 08:54:53;;;;;;;24.08;15.48;;;18.40;99.90;;;;;;5037167;28;20053;-62
2022/05/07 08:57:19;;;;;;;24.67;15.27;;;18.80;99.90;;;;;;5035926;28;20094;-61
2022/05/07 08:59:51;;;;;;;26.52;15.88;;;19.00;99.90;;;;;;5041113;28;20144;-61
2022/05/07 09:02:17;;;;;;;23.80;15.60;;;19.10;99.90;;;;;;5036693;28;20102;-63
2022/05/07 09:04:53;;;;;;;23.25;15.73;;;19.20;99.90;;;;;;5046217;28;20053;-61
2022/05/07 09:07:19;;;;;;;24.25;14.27;;;19.40;99.90;;;;;;5037615;28;20099;-62
2022/05/07 09:09:49;;;;;;;27.38;16.92;;;19.70;99.90;;;;;;5051192;28;20041;-62
2022/05/07 09:12:29;;;;;;;24.83;14.80;;;20.00;99.90;;;;;;5041376;28;20041;-62
2022/05/07 09:15:06;;;;;;;24.25;16.08;;;20.20;99.90;;;;;;5040601;28;20125;-63
2022/05/07 09:17:32;;;;;;;25.35;15.95;;;20.50;99.90;;;;;;5040463;28;20049;-62
2022/05/07 09:20:08;;;;;;;24.85;16.52;;;20.60;99.90;;;;;;5043067;28;20045;-63
2022/05/07 09:22:34;;;;;;;27.70;15.57;;;20.80;99.90;;;;;;5041242;28;20057;-63
2022/05/07 09:25:00;;;;;;;26.63;16.02;;;21.10;99.90;;;;;;5044867;28;20045;-63
2022/05/07 09:27:25;;;;;;;27.20;16.48;;;21.30;99.00;;;;;;5036016;28;20621;-63
2022/05/07 09:30:02;;;;;;;27.80;16.25;;;21.20;98.20;;;;;;5040818;28;20080;-62
2022/05/07 09:32:37;;;;;;;26.33;16.42;;;21.20;97.10;;;;;;5046220;28;20143;-62
2022/05/07 09:38:01;;;;;;;28.93;17.13;;;21.30;97.90;;;;;;5038025;28;20135;-62
2022/05/07 09:40:28;;;;;;;27.88;16.08;;;21.20;98.20;;;;;;5043217;28;20446;-63
2022/05/07 09:43:00;;;;;;;28.58;16.92;;;21.00;97.60;;;;;;5036820;28;20491;-62
2022/05/07 09:45:27;;;;;;;23.02;16.98;;;21.00;97.90;;;;;;5036460;28;20045;-62
2022/05/07 09:47:54;;;;;;;28.27;18.02;;;20.80;98.40;;;;;;5042937;28;20102;-62
2022/05/07 09:50:22;;;;;;;26.60;18.23;;;20.70;99.00;;;;;;5037251;28;20056;-64
2022/05/07 09:58:19;;;;;;;28.73;18.35;;;20.90;99.30;;;;;;5037114;28;20115;-62
2022/05/07 10:01:10;;;;;;;26.88;19.05;;;20.80;99.30;;;;;;5042693;28;20511;-61
2022/05/07 10:03:53;;;;;;;27.25;18.17;;;20.60;99.10;;;;;;5038393;28;20537;-62
2022/05/07 10:06:22;;;;;;;32.80;20.33;;;20.60;99.10;;;;;;5036906;28;20060;-63
2022/05/07 10:09:02;;;;;;;28.48;20.05;;;20.40;99.90;;;;;;5040189;28;20108;-62
2022/05/07 10:11:29;;;;;;;30.58;20.75;;;20.70;99.90;;;;;;5036606;28;20041;-62
2022/05/07 10:13:55;;;;;;;32.45;21.10;;;20.80;99.50;;;;;;5036332;28;20459;-61
2022/05/07 10:16:23;;;;;;;30.55;20.75;;;21.00;99.20;;;;;;5044536;28;20368;-62
2022/05/07 10:18:49;;;;;;;29.85;20.92;;;20.80;99.40;;;;;;5038946;28;20057;-63
2022/05/07 10:21:17;;;;;;;27.55;19.75;;;20.80;99.50;;;;;;5036266;28;20452;-64
2022/05/07 10:23:56;;;;;;;26.20;19.23;;;20.80;99.30;;;;;;5037839;28;20052;-63
2022/05/07 10:26:36;;;;;;;28.45;19.95;;;20.60;98.50;;;;;;5040684;28;20117;-61
2022/05/07 10:29:03;;;;;;;30.35;20.92;;;20.60;98.90;;;;;;5043073;28;20506;-64
2022/05/07 10:31:29;;;;;;;25.30;19.48;;;20.50;99.00;;;;;;5039739;28;20773;-61
2022/05/07 10:33:55;;;;;;;26.88;20.50;;;20.50;99.60;;;;;;5047186;28;20155;-62
2022/05/07 10:36:22;;;;;;;30.25;21.45;;;20.50;99.60;;;;;;5031358;28;20805;-63
2022/05/07 10:38:49;;;;;;;29.67;21.60;;;20.60;99.30;;;;;;5044498;28;20041;-63
2022/05/07 10:41:15;;;;;;;27.13;19.02;;;20.30;99.60;;;;;;5049425;28;20054;-63
2022/05/07 10:43:48;;;;;;;28.88;21.30;;;20.40;99.70;;;;;;5042579;28;20042;-62
2022/05/07 10:46:16;;;;;;;25.58;19.23;;;20.30;99.80;;;;;;5035445;28;20091;-63
2022/05/07 10:48:50;;;;;;;26.38;19.88;;;20.40;99.70;;;;;;5038297;28;20048;-64
2022/05/07 10:51:36;;;;;;;24.35;18.52;;;20.50;99.30;;;;;;5036561;28;20056;-66
2022/05/07 10:54:15;;;;;;;28.67;20.23;;;20.70;99.30;;;;;;5037069;28;20052;-67
2022/05/07 10:56:49;;;;;;;26.85;20.45;;;20.80;98.70;;;;;;5044507;28;20041;-62
2022/05/07 10:59:15;;;;;;;26.90;20.70;;;21.00;98.00;;;;;;5040519;28;20033;-65
2022/05/07 11:01:42;;;;;;;26.80;19.73;;;21.00;97.60;;;;;;5039725;28;20195;-62
2022/05/07 11:04:10;;;;;;;26.83;19.45;;;21.20;97.20;;;;;;5034141;28;20060;-67
2022/05/07 11:06:48;;;;;;;25.17;18.02;;;21.20;96.70;;;;;;5038764;28;20048;-63
2022/05/07 11:09:22;;;;;;;23.90;18.60;;;21.40;96.80;;;;;;5032993;28;20444;-64
2022/05/07 11:11:51;;;;;;;24.23;18.45;;;21.50;96.40;;;;;;5036069;28;20034;-64
2022/05/07 11:14:22;;;;;;;22.30;16.95;;;21.80;95.80;;;;;;5031521;28;20123;-64
2022/05/07 11:16:48;;;;;;;22.35;19.30;;;22.00;95.40;;;;;;5039508;28;20076;-62
2022/05/07 11:19:27;;;;;;;23.70;18.55;;;22.20;94.90;;;;;;5039344;28;20454;-61
2022/05/07 11:21:53;;;;;;;24.85;18.65;;;22.40;93.30;;;;;;5040866;28;20049;-62
2022/05/07 11:24:20;;;;;;;24.25;19.17;;;22.40;93.40;;;;;;5031791;28;20049;-63
2022/05/07 11:27:05;;;;;;;26.55;20.52;;;22.50;93.40;;;;;;5032564;28;20068;-64
2022/05/07 11:29:31;;;;;;;25.50;20.05;;;22.40;93.20;;;;;;5045744;28;20127;-63
2022/05/07 11:32:08;;;;;;;23.60;20.02;;;22.20;93.60;;;;;;5038685;28;20053;-63
2022/05/07 11:34:33;;;;;;;24.48;19.77;;;22.10;92.80;;;;;;5035882;28;20375;-64
2022/05/07 11:37:19;;;;;;;23.52;19.38;;;21.70;92.50;;;;;;5040932;28;20045;-64
2022/05/07 11:39:47;;;;;;;21.75;18.52;;;21.80;93.50;;;;;;5044839;28;20153;-64
2022/05/07 11:42:28;;;;;;;22.15;17.30;;;21.60;93.70;;;;;;5038873;28;20479;-64
2022/05/07 11:47:53;;;;;;;20.85;16.73;;;22.20;92.40;;;;;;5035538;28;20057;-62
2022/05/07 11:50:27;;;;;;;17.20;15.35;;;22.20;90.90;;;;;;5028937;28;20061;-61
2022/05/07 11:52:53;;;;;;;18.90;16.27;;;22.40;91.00;;;;;;5030120;28;20109;-61
2022/05/07 11:55:27;;;;;;;19.83;17.58;;;22.70;90.00;;;;;;5033892;28;20493;-62
2022/05/07 11:57:54;;;;;;;21.13;18.02;;;22.90;87.10;;;;;;5039892;28;20147;-63
2022/05/07 12:00:24;;;;;;;20.92;17.90;;;23.00;87.00;;;;;;5042777;28;20118;-62
2022/05/07 12:02:55;;;;;;;19.83;16.30;;;22.70;87.40;;;;;;5044025;28;20122;-62
2022/05/07 12:05:22;;;;;;;24.17;20.33;;;22.80;86.60;;;;;;5034475;28;20041;-61
2022/05/07 12:07:50;;;;;;;23.98;20.52;;;22.50;88.10;;;;;;5041169;28;20164;-61
2022/05/07 12:10:17;;;;;;;30.13;26.10;;;22.50;90.50;;;;;;5033334;28;20034;-62
2022/05/07 12:12:44;;;;;;;31.73;25.90;;;22.20;92.00;;;;;;5044111;28;20052;-62
2022/05/07 12:15:09;;;;;;;31.25;26.50;;;22.00;94.00;;;;;;5036508;28;20060;-62
2022/05/07 12:17:54;;;;;;;28.30;24.25;;;22.00;95.10;;;;;;5034137;28;20042;-61
2022/05/07 12:20:21;;;;;;;33.40;25.08;;;22.10;95.50;;;;;;5036946;28;20055;-62
2022/05/07 12:31:02;;;;;;;28.63;22.83;;;22.70;93.40;;;;;;5041851;28;20045;-61
2022/05/07 12:33:28;;;;;;;32.50;24.20;;;22.60;93.30;;;;;;5045536;28;20368;-62
2022/05/07 12:35:54;;;;;;;26.33;21.65;;;22.60;92.70;;;;;;5042051;28;20038;-61
2022/05/07 12:38:20;;;;;;;29.02;22.17;;;22.50;93.30;;;;;;5043031;28;20120;-62
2022/05/07 12:40:45;;;;;;;27.02;22.83;;;22.50;93.30;;;;;;5043399;28;20174;-62
2022/05/07 12:43:11;;;;;;;25.65;20.40;;;22.40;93.00;;;;;;5046871;28;20376;-61
2022/05/07 12:45:36;;;;;;;26.02;21.02;;;22.40;93.10;;;;;;5041053;28;20041;-63
2022/05/07 12:48:02;;;;;;;24.60;19.52;;;22.30;92.30;;;;;;5046808;28;20037;-62
2022/05/07 12:50:28;;;;;;;25.35;20.02;;;22.30;92.10;;;;;;5043729;28;20497;-62
2022/05/07 12:52:54;;;;;;;25.45;18.88;;;22.30;91.50;;;;;;5041897;28;20060;-62
2022/05/07 12:55:20;;;;;;;22.58;18.17;;;22.40;91.60;;;;;;5040446;28;20407;-62
2022/05/07 12:57:47;;;;;;;24.20;18.48;;;22.30;91.70;;;;;;5044452;28;20042;-62
2022/05/07 13:00:13;;;;;;;23.02;18.05;;;22.30;91.70;;;;;;5041643;28;20049;-62
2022/05/07 13:02:39;;;;;;;23.50;18.23;;;22.20;91.60;;;;;;5040043;28;20060;-61
2022/05/07 13:05:05;;;;;;;24.67;17.90;;;22.10;91.80;;;;;;5033594;28;20120;-61
2022/05/07 13:07:31;;;;;;;23.23;18.30;;;22.10;92.60;;;;;;5043333;28;20040;-60